Time;durP1;ratioP1;P1;durP2;ratioP2;P2;SDS_P1;SDS_P2;PMS_P1;PMS_P2;Temp;Humidity;BMP_temperature;BMP_pressure;BME280_temperature;BME280_humidity;BME280_pressure;Samples;Min_cycle;Max_cycle;Signal;HPM_P1;HPM_P2
2022/09/06 00:00:26;;;;;;;5.93;3.60;;;;;;;18.93;89.66;98193.19;5073767;28;20228;-71
2022/09/06 00:02:53;;;;;;;5.87;4.07;;;;;;;18.96;89.32;98189.94;5073784;28;20209;-71
2022/09/06 00:05:20;;;;;;;4.33;3.93;;;;;;;18.93;89.46;98184.28;5073769;28;20215;-71
2022/09/06 00:07:46;;;;;;;4.70;3.37;;;;;;;18.90;90.71;98182.94;5073645;28;20231;-71
2022/09/06 00:10:13;;;;;;;4.93;3.43;;;;;;;18.85;90.73;98184.81;5073601;28;20289;-71
2022/09/06 00:12:40;;;;;;;3.83;3.47;;;;;;;18.83;90.65;98176.22;5073365;28;20204;-71
2022/09/06 00:15:07;;;;;;;4.80;3.70;;;;;;;18.78;90.70;98174.31;5074142;28;20208;-71
2022/09/06 00:17:34;;;;;;;4.03;3.63;;;;;;;18.77;91.06;98174.59;5073237;28;20213;-71
2022/09/06 00:20:01;;;;;;;4.57;3.97;;;;;;;18.67;91.52;98178.09;5073865;28;20230;-71
2022/09/06 00:22:27;;;;;;;5.37;4.03;;;;;;;18.69;91.27;98177.81;5073582;28;20291;-71
2022/09/06 00:24:53;;;;;;;4.40;4.00;;;;;;;18.65;91.60;98177.56;5073268;28;20685;-71
2022/09/06 00:27:20;;;;;;;3.90;3.60;;;;;;;18.62;92.34;98177.25;5073396;28;20230;-71
2022/09/06 00:29:46;;;;;;;4.53;3.80;;;;;;;18.57;92.84;98179.94;5073435;28;20267;-71
2022/09/06 00:32:13;;;;;;;6.63;3.93;;;;;;;18.47;92.60;98180.75;5073165;28;20211;-71
2022/09/06 00:34:39;;;;;;;4.00;3.70;;;;;;;18.49;92.38;98175.91;5073398;28;20204;-71
2022/09/06 00:37:05;;;;;;;4.10;3.70;;;;;;;18.45;92.95;98184.75;5073406;28;20207;-71
2022/09/06 00:39:32;;;;;;;5.93;3.90;;;;;;;18.43;93.65;98182.34;5073310;28;20224;-71
2022/09/06 00:41:58;;;;;;;4.10;3.70;;;;;;;18.42;92.56;98177.22;5073388;28;20303;-71
2022/09/06 00:44:24;;;;;;;4.07;3.73;;;;;;;18.40;92.63;98173.97;5073858;28;20208;-71
2022/09/06 00:46:54;;;;;;;6.00;3.30;;;;;;;18.42;93.79;98175.31;5072923;28;20706;-71
2022/09/06 00:49:29;;;;;;;4.97;3.80;;;;;;;18.43;92.90;98171.59;5072043;28;20231;-72
2022/09/06 00:52:01;;;;;;;7.87;3.50;;;;;;;18.42;92.74;98169.94;5076997;28;20191;-71
2022/09/06 00:54:28;;;;;;;3.13;2.67;;;;;;;18.36;93.90;98173.72;5077093;28;20192;-71
2022/09/06 00:56:56;;;;;;;5.03;3.40;;;;;;;18.32;93.62;98169.88;5077309;28;20200;-71
2022/09/06 00:59:25;;;;;;;6.03;3.60;;;;;;;18.27;94.55;98185.25;5077150;28;20230;-71
2022/09/06 01:01:51;;;;;;;5.93;3.47;;;;;;;18.23;94.96;98176.88;5077208;28;20204;-71
2022/09/06 01:04:18;;;;;;;7.50;3.20;;;;;;;18.20;94.32;98190.88;5077124;28;20211;-71
2022/09/06 01:06:57;;;;;;;4.10;3.13;;;;;;;18.17;94.63;98186.00;5077029;28;20224;-71
2022/09/06 01:09:26;;;;;;;3.87;3.47;;;;;;;18.20;93.94;98180.09;5076701;28;20715;-71
2022/09/06 01:12:14;;;;;;;4.40;3.70;;;;;;;18.10;95.39;98180.03;5077011;28;20211;-71
2022/09/06 01:14:49;;;;;;;5.97;3.37;;;;;;;18.04;95.37;98180.28;5076982;28;20189;-71
2022/09/06 01:17:31;;;;;;;3.53;3.10;;;;;;;18.03;95.61;98179.50;5076777;28;20214;-71
2022/09/06 01:20:19;;;;;;;5.60;3.57;;;;;;;18.06;96.49;98184.31;5076738;28;20323;-71
2022/09/06 01:22:54;;;;;;;5.40;3.47;;;;;;;18.09;96.27;98189.19;5076850;28;20197;-71
2022/09/06 01:25:27;;;;;;;5.17;3.37;;;;;;;18.08;96.33;98184.91;5076732;28;20192;-71
2022/09/06 01:28:02;;;;;;;5.27;3.50;;;;;;;18.10;95.87;98200.78;5076361;28;20572;-71
2022/09/06 01:30:33;;;;;;;4.27;3.40;;;;;;;18.09;95.60;98202.66;5076289;28;20224;-71
2022/09/06 01:33:28;;;;;;;3.43;3.10;;;;;;;18.10;96.29;98200.78;5075495;28;20185;-71
2022/09/06 01:36:02;;;;;;;5.13;3.60;;;;;;;18.08;95.51;98201.03;5075032;28;20191;-71
2022/09/06 01:38:29;;;;;;;4.27;3.33;;;;;;;18.01;96.89;98200.47;5077002;28;20180;-71
2022/09/06 01:40:55;;;;;;;4.87;3.30;;;;;;;17.95;96.81;98201.50;5076355;28;20232;-71
2022/09/06 01:43:35;;;;;;;3.50;3.20;;;;;;;17.95;97.12;98203.38;5076384;28;20211;-71
2022/09/06 01:46:19;;;;;;;4.63;3.53;;;;;;;17.93;97.14;98210.91;5075204;28;20199;-72
2022/09/06 01:49:04;;;;;;;5.57;3.80;;;;;;;17.98;97.79;98211.75;5074881;28;20555;-71
2022/09/06 01:51:49;;;;;;;4.03;3.40;;;;;;;18.00;98.57;98209.59;5076311;28;20199;-71
2022/09/06 01:54:36;;;;;;;4.77;3.40;;;;;;;18.01;97.93;98207.72;5076800;28;20188;-71
2022/09/06 01:57:28;;;;;;;4.07;3.60;;;;;;;18.00;98.01;98212.28;5076168;28;20191;-71
2022/09/06 02:00:11;;;;;;;5.63;3.57;;;;;;;17.97;98.55;98210.13;5073145;28;20231;-71
2022/09/06 02:02:41;;;;;;;4.97;3.53;;;;;;;17.98;98.31;98209.06;5075236;28;20192;-71
2022/09/06 02:05:23;;;;;;;6.53;3.83;;;;;;;17.92;98.80;98212.00;5076018;28;20208;-71
2022/09/06 02:07:55;;;;;;;4.50;3.87;;;;;;;17.91;99.39;98211.19;5075893;28;20219;-71
2022/09/06 02:10:37;;;;;;;5.90;3.33;;;;;;;17.89;99.56;98215.19;5076221;28;20228;-71
2022/09/06 02:13:07;;;;;;;5.20;3.50;;;;;;;17.86;99.92;98216.53;5075945;28;20188;-71
2022/09/06 02:15:38;;;;;;;5.00;3.67;;;;;;;17.72;100.00;98236.91;5075817;28;20220;-71
2022/09/06 02:18:17;;;;;;;4.43;3.87;;;;;;;17.86;99.77;98304.47;5074257;28;20586;-71
2022/09/06 02:20:51;;;;;;;3.70;3.30;;;;;;;18.05;96.96;98298.41;5074172;28;20224;-71
2022/09/06 02:23:21;;;;;;;5.10;3.43;;;;;;;18.15;94.47;98290.38;5075649;28;20212;-71
2022/09/06 02:25:57;;;;;;;6.23;3.17;;;;;;;18.21;93.59;98286.66;5075659;28;20278;-71
2022/09/06 02:28:23;;;;;;;3.53;3.23;;;;;;;18.22;95.09;98290.97;5075513;28;20212;-72
2022/09/06 02:30:56;;;;;;;6.43;3.30;;;;;;;18.25;93.53;98282.38;5075381;28;20225;-71
2022/09/06 02:33:27;;;;;;;4.80;3.17;;;;;;;18.41;90.85;98284.09;5058073;28;20632;-71
2022/09/06 02:35:55;;;;;;;3.50;3.20;;;;;;;18.59;88.72;98283.63;5075088;28;20188;-71
2022/09/06 02:38:23;;;;;;;4.27;2.97;;;;;;;18.72;87.22;98280.44;5075591;28;20200;-71
2022/09/06 02:40:53;;;;;;;3.43;3.20;;;;;;;18.78;87.68;98283.97;5074886;28;20229;-71
2022/09/06 02:43:20;;;;;;;4.53;3.10;;;;;;;18.77;87.70;98293.91;5075300;28;20204;-71
2022/09/06 02:45:46;;;;;;;3.57;3.27;;;;;;;18.92;86.04;98295.84;5074825;28;20209;-71
2022/09/06 02:48:13;;;;;;;5.30;3.63;;;;;;;19.02;85.12;98283.22;5075078;28;20228;-71
2022/09/06 02:50:39;;;;;;;7.37;3.57;;;;;;;19.10;83.75;98285.34;5075039;28;20387;-71
2022/09/06 02:53:14;;;;;;;4.27;3.13;;;;;;;19.00;91.67;98295.31;5075082;28;20208;-71
2022/09/06 02:55:41;;;;;;;4.43;3.60;;;;;;;18.92;94.04;98288.56;5074688;28;20214;-71
2022/09/06 02:58:10;;;;;;;6.57;3.90;;;;;;;18.83;99.12;98255.13;5074641;28;20204;-71
2022/09/06 03:00:37;;;;;;;5.70;4.53;;;;;;;18.35;100.00;98265.50;5074805;28;20228;-71
2022/09/06 03:03:04;;;;;;;5.30;4.23;;;;;;;18.22;100.00;98247.91;5074754;28;20212;-71
2022/09/06 03:05:31;;;;;;;8.13;4.90;;;;;;;18.00;100.00;98244.59;5074746;28;20240;-71
2022/09/06 03:07:58;;;;;;;5.50;5.00;;;;;;;17.89;100.00;98218.72;5074712;28;20224;-72
2022/09/06 03:10:25;;;;;;;6.30;4.80;;;;;;;17.85;100.00;98222.16;5074675;28;20230;-71
2022/09/06 03:12:52;;;;;;;5.73;5.00;;;;;;;17.81;100.00;98231.81;5074579;28;20265;-71
2022/09/06 03:15:19;;;;;;;5.87;5.30;;;;;;;17.79;100.00;98228.59;5074224;28;20559;-71
2022/09/06 03:17:46;;;;;;;7.40;5.37;;;;;;;17.69;100.00;98225.84;5074023;28;20208;-71
2022/09/06 03:20:13;;;;;;;7.00;5.90;;;;;;;17.63;100.00;98216.94;5074349;28;20225;-71
2022/09/06 03:22:40;;;;;;;7.73;6.20;;;;;;;17.66;100.00;98208.38;5074059;28;20739;-71
2022/09/06 03:25:09;;;;;;;8.07;6.07;;;;;;;17.69;100.00;98202.44;5074095;28;20406;-71
2022/09/06 03:27:35;;;;;;;9.50;7.00;;;;;;;17.62;100.00;98220.72;5074192;28;20232;-71
2022/09/06 03:30:02;;;;;;;7.60;5.77;;;;;;;17.59;100.00;98234.66;5073920;28;20235;-71
2022/09/06 03:32:28;;;;;;;6.37;5.50;;;;;;;17.57;100.00;98236.81;5073887;28;20200;-71
2022/09/06 03:34:55;;;;;;;7.47;6.10;;;;;;;17.62;100.00;98234.16;5073869;28;20697;-71
2022/09/06 03:37:21;;;;;;;6.30;5.70;;;;;;;17.61;100.00;98224.47;5074136;28;20201;-71
2022/09/06 03:39:47;;;;;;;6.33;5.60;;;;;;;17.54;100.00;98223.88;5073851;28;20228;-71
2022/09/06 03:42:14;;;;;;;6.07;5.47;;;;;;;17.49;100.00;98223.84;5073710;28;20209;-71
2022/09/06 03:44:40;;;;;;;7.13;5.60;;;;;;;17.43;100.00;98226.75;5073790;28;20223;-71
2022/09/06 03:47:07;;;;;;;5.97;5.37;;;;;;;17.34;100.00;98228.28;5073717;28;20235;-71
2022/09/06 03:49:33;;;;;;;6.80;6.10;;;;;;;17.34;100.00;98237.16;5073818;28;20220;-71
2022/09/06 03:51:59;;;;;;;6.67;5.97;;;;;;;17.26;100.00;98232.25;5073903;28;20208;-71
2022/09/06 03:54:27;;;;;;;6.67;6.00;;;;;;;17.22;100.00;98231.13;5073417;28;20204;-70
2022/09/06 03:56:53;;;;;;;8.47;6.30;;;;;;;17.18;100.00;98229.19;5073690;28;20208;-71
2022/09/06 03:59:20;;;;;;;7.03;6.30;;;;;;;17.24;100.00;98234.34;5073759;28;20231;-71
2022/09/06 04:01:46;;;;;;;6.57;5.73;;;;;;;17.17;100.00;98227.59;5073339;28;20204;-71
2022/09/06 04:04:12;;;;;;;7.17;6.53;;;;;;;17.19;100.00;98228.94;5073446;28;20214;-71
2022/09/06 04:06:39;;;;;;;7.27;6.10;;;;;;;17.24;100.00;98237.06;5072995;28;20244;-71
2022/09/06 04:09:05;;;;;;;7.27;6.00;;;;;;;17.20;100.00;98233.25;5073401;28;20224;-71
2022/09/06 04:11:32;;;;;;;7.27;6.57;;;;;;;17.15;100.00;98233.22;5073500;28;20204;-70
2022/09/06 04:13:58;;;;;;;7.73;5.90;;;;;;;17.14;100.00;98234.28;5073500;28;20214;-71
2022/09/06 04:16:24;;;;;;;12.20;6.93;;;;;;;17.13;100.00;98235.34;5073223;28;20232;-71
2022/09/06 04:18:51;;;;;;;6.83;6.13;;;;;;;17.18;100.00;98227.34;5073369;28;20304;-71
2022/09/06 04:21:17;;;;;;;8.40;5.93;;;;;;;17.18;100.00;98232.72;5073144;28;20439;-71
2022/09/06 04:23:43;;;;;;;6.63;5.83;;;;;;;17.26;100.00;98229.56;5073295;28;20204;-70
2022/09/06 04:26:10;;;;;;;7.17;6.53;;;;;;;17.27;100.00;98228.47;5072896;28;20204;-71
2022/09/06 04:28:36;;;;;;;7.80;6.50;;;;;;;17.29;100.00;98218.28;5073327;28;20231;-70
2022/09/06 04:31:04;;;;;;;7.77;6.37;;;;;;;17.29;100.00;98223.66;5073256;28;20228;-70
2022/09/06 04:33:31;;;;;;;7.80;6.73;;;;;;;17.30;100.00;98227.97;5073248;28;20205;-71
2022/09/06 04:36:00;;;;;;;7.23;6.37;;;;;;;17.34;100.00;98241.72;5072884;28;20333;-70
2022/09/06 04:38:29;;;;;;;7.40;6.53;;;;;;;17.31;100.00;98237.66;5073134;28;20205;-70
2022/09/06 04:40:55;;;;;;;7.60;6.77;;;;;;;17.36;100.00;98236.88;5072908;28;20232;-71
2022/09/06 04:43:23;;;;;;;8.33;6.80;;;;;;;17.43;100.00;98230.25;5072913;28;20211;-70
2022/09/06 04:45:49;;;;;;;8.13;6.30;;;;;;;17.41;100.00;98223.53;5072849;28;20201;-71
2022/09/06 04:48:16;;;;;;;8.83;7.73;;;;;;;17.42;100.00;98225.94;5073004;28;20230;-70
2022/09/06 04:50:42;;;;;;;9.00;7.67;;;;;;;17.45;100.00;98221.91;5072740;28;20311;-71
2022/09/06 04:53:09;;;;;;;15.43;9.33;;;;;;;17.45;100.00;98230.81;5072729;28;20200;-70
2022/09/06 04:55:37;;;;;;;10.47;8.77;;;;;;;17.47;100.00;98231.34;5072451;28;20250;-70
2022/09/06 04:58:04;;;;;;;13.87;9.27;;;;;;;17.45;100.00;98230.81;5072326;28;20292;-70
2022/09/06 05:00:32;;;;;;;10.53;9.13;;;;;;;17.50;100.00;98238.09;5072311;28;20604;-71
2022/09/06 05:02:59;;;;;;;10.80;8.97;;;;;;;17.47;100.00;98242.09;5072317;28;20209;-71
2022/09/06 05:05:25;;;;;;;14.43;9.30;;;;;;;17.49;100.00;98242.66;5072068;28;20205;-70
2022/09/06 05:07:53;;;;;;;13.13;8.83;;;;;;;17.52;100.00;98242.16;5072487;28;20227;-70
2022/09/06 05:10:21;;;;;;;9.83;8.83;;;;;;;17.48;100.00;98241.03;5072488;28;20220;-70
2022/09/06 05:12:49;;;;;;;9.40;8.57;;;;;;;17.47;100.00;98244.78;5072315;28;20683;-70
2022/09/06 05:15:17;;;;;;;8.53;7.73;;;;;;;17.51;100.00;98242.41;5072599;28;20208;-71
2022/09/06 05:17:43;;;;;;;9.97;8.23;;;;;;;17.54;100.00;98255.31;5072119;28;20205;-70
2022/09/06 05:20:10;;;;;;;9.73;8.80;;;;;;;17.52;100.00;98265.53;5072096;28;20235;-70
2022/09/06 05:22:37;;;;;;;9.07;7.27;;;;;;;17.56;100.00;98272.00;5072032;28;20648;-70
2022/09/06 05:25:04;;;;;;;9.20;7.83;;;;;;;17.50;100.00;98268.47;5072301;28;20204;-70
2022/09/06 05:27:31;;;;;;;9.93;7.87;;;;;;;17.53;100.00;98267.97;5072039;28;20690;-70
2022/09/06 05:29:57;;;;;;;9.07;8.13;;;;;;;17.53;100.00;98257.22;5072262;28;20239;-70
2022/09/06 05:32:24;;;;;;;8.53;7.10;;;;;;;17.51;100.00;98262.00;5072091;28;20612;-72
2022/09/06 05:34:50;;;;;;;8.63;6.90;;;;;;;17.52;100.00;98262.84;5072105;28;20211;-71
2022/09/06 05:37:16;;;;;;;8.50;7.17;;;;;;;17.54;100.00;98266.88;5073127;28;20215;-71
2022/09/06 05:39:43;;;;;;;8.40;6.63;;;;;;;17.54;100.00;98272.25;5076006;28;20225;-71
2022/09/06 05:42:09;;;;;;;7.37;6.77;;;;;;;17.55;100.00;98271.19;5075979;28;20212;-71
2022/09/06 05:44:37;;;;;;;8.10;7.30;;;;;;;17.55;100.00;98263.13;5075974;28;20208;-71
2022/09/06 05:47:04;;;;;;;9.07;7.47;;;;;;;17.52;100.00;98269.03;5075582;28;20258;-71
2022/09/06 05:49:32;;;;;;;9.60;7.60;;;;;;;17.54;100.00;98272.25;5075303;28;20233;-71
2022/09/06 05:51:58;;;;;;;10.40;7.10;;;;;;;17.55;100.00;98267.72;5075221;28;20604;-71
2022/09/06 05:54:25;;;;;;;9.87;7.50;;;;;;;17.54;100.00;98266.88;5076120;28;20204;-71
2022/09/06 05:56:51;;;;;;;8.07;7.27;;;;;;;17.58;100.00;98259.09;5075518;28;20566;-71
2022/09/06 05:59:18;;;;;;;8.87;7.00;;;;;;;17.61;100.00;98267.50;5075513;28;20307;-71
2022/09/06 06:01:52;;;;;;;8.10;6.73;;;;;;;17.65;100.00;98268.56;5075280;28;20686;-71
2022/09/06 06:04:20;;;;;;;9.83;7.33;;;;;;;17.68;100.00;98265.38;5071954;28;20214;-71
2022/09/06 06:06:47;;;;;;;9.07;8.17;;;;;;;17.69;100.00;98258.91;5055376;28;20300;-71
2022/09/06 06:09:15;;;;;;;9.00;7.83;;;;;;;17.72;100.00;98262.97;5054906;28;20748;-71
2022/09/06 06:11:41;;;;;;;8.40;7.70;;;;;;;17.70;100.00;98268.63;5055394;28;20201;-71
2022/09/06 06:14:08;;;;;;;9.63;7.60;;;;;;;17.78;100.00;98273.50;5054989;28;20211;-71
2022/09/06 06:16:35;;;;;;;8.00;7.20;;;;;;;17.80;100.00;98276.75;5055196;28;20223;-70
2022/09/06 06:19:02;;;;;;;7.90;7.17;;;;;;;17.90;100.00;98271.44;5054937;28;20682;-70
2022/09/06 06:21:30;;;;;;;10.27;7.10;;;;;;;17.84;100.00;98282.41;5054889;28;20201;-71
2022/09/06 06:23:59;;;;;;;9.07;7.53;;;;;;;17.93;100.00;98283.56;5055079;28;20209;-70
2022/09/06 06:26:28;;;;;;;9.57;7.43;;;;;;;17.99;100.00;98269.88;5055053;28;20201;-70
2022/09/06 06:28:56;;;;;;;9.03;7.80;;;;;;;18.03;100.00;98259.38;5054843;28;20225;-71
2022/09/06 06:31:23;;;;;;;10.80;7.77;;;;;;;18.11;100.00;98261.59;5054849;28;20205;-70
2022/09/06 06:33:50;;;;;;;11.70;7.37;;;;;;;18.17;100.00;98269.44;5054614;28;20212;-71
2022/09/06 06:36:23;;;;;;;9.03;7.17;;;;;;;18.26;100.00;98265.16;5055203;28;20295;-70
2022/09/06 06:38:53;;;;;;;11.20;7.33;;;;;;;18.32;100.00;98266.78;5055001;28;20190;-70
2022/09/06 06:41:22;;;;;;;9.40;6.90;;;;;;;18.34;100.00;98275.47;5054328;28;20683;-70
2022/09/06 06:43:54;;;;;;;8.87;7.20;;;;;;;18.38;100.00;98281.94;5054300;28;20296;-70
2022/09/06 06:46:22;;;;;;;10.20;6.80;;;;;;;18.48;100.00;98283.84;5054462;28;20208;-71
2022/09/06 06:48:48;;;;;;;9.33;7.47;;;;;;;18.52;100.00;98280.38;5054623;28;20226;-70
2022/09/06 06:51:18;;;;;;;8.73;6.70;;;;;;;18.59;100.00;98282.84;5054539;28;20229;-70
2022/09/06 06:53:46;;;;;;;8.30;6.10;;;;;;;18.56;100.00;98281.47;5055045;28;20207;-70
2022/09/06 06:56:21;;;;;;;8.67;6.83;;;;;;;18.72;100.00;98287.69;5054688;28;20296;-70
2022/09/06 06:58:50;;;;;;;7.90;6.33;;;;;;;18.75;100.00;98288.00;5055063;28;20276;-70
2022/09/06 07:01:17;;;;;;;10.60;6.50;;;;;;;18.91;100.00;98278.06;5054498;28;20292;-70
2022/09/06 07:03:44;;;;;;;13.73;6.40;;;;;;;19.12;100.00;98267.03;5054635;28;20212;-70
2022/09/06 07:06:10;;;;;;;9.80;6.40;;;;;;;19.22;100.00;98264.38;5054212;28;20793;-69
2022/09/06 07:08:37;;;;;;;8.77;5.60;;;;;;;19.43;100.00;98263.31;5054197;28;20231;-70
2022/09/06 07:11:05;;;;;;;6.27;5.67;;;;;;;19.58;100.00;98259.00;5054170;28;20225;-70
2022/09/06 07:13:33;;;;;;;7.63;5.33;;;;;;;19.72;100.00;98254.66;5054339;28;20206;-70
2022/09/06 07:16:14;;;;;;;6.90;5.17;;;;;;;19.78;100.00;98270.56;5053958;28;20553;-70
2022/09/06 07:18:41;;;;;;;6.53;5.17;;;;;;;19.77;100.00;98267.03;5054346;28;20182;-70
2022/09/06 07:21:16;;;;;;;7.57;5.40;;;;;;;19.87;100.00;98273.50;5053893;28;20696;-70
2022/09/06 07:23:43;;;;;;;6.87;4.60;;;;;;;19.92;100.00;98265.41;5054158;28;20291;-70
2022/09/06 07:26:18;;;;;;;7.70;4.90;;;;;;;20.02;99.58;98262.69;5053762;28;20314;-70
2022/09/06 07:28:45;;;;;;;7.60;4.70;;;;;;;20.09;98.14;98271.31;5054037;28;20311;-70
2022/09/06 07:31:11;;;;;;;5.63;4.70;;;;;;;20.03;99.37;98267.00;5053838;28;20248;-70
2022/09/06 07:33:38;;;;;;;5.03;4.20;;;;;;;20.06;100.00;98267.25;5053573;28;20209;-70
2022/09/06 07:36:07;;;;;;;8.73;4.60;;;;;;;19.92;100.00;98271.63;5053523;28;20581;-70
2022/09/06 07:38:35;;;;;;;5.00;4.50;;;;;;;19.94;100.00;98272.13;5053975;28;20205;-71
2022/09/06 07:41:06;;;;;;;5.67;4.80;;;;;;;20.11;100.00;98269.19;5053840;28;20221;-70
2022/09/06 07:43:33;;;;;;;8.83;4.47;;;;;;;20.35;97.61;98256.66;5053963;28;20200;-71
2022/09/06 07:46:10;;;;;;;8.20;4.90;;;;;;;20.47;96.00;98267.94;5053550;28;20304;-70
2022/09/06 07:48:40;;;;;;;4.67;4.27;;;;;;;20.44;97.73;98265.81;5053421;28;20205;-70
2022/09/06 07:51:08;;;;;;;5.57;4.00;;;;;;;20.68;94.14;98273.00;5053623;28;20239;-70
2022/09/06 07:53:36;;;;;;;5.87;4.00;;;;;;;20.78;92.13;98280.22;5053336;28;20212;-70
2022/09/06 07:56:05;;;;;;;4.57;3.80;;;;;;;20.96;90.04;98274.19;5053728;28;20209;-71
2022/09/06 07:58:33;;;;;;;8.80;4.10;;;;;;;20.95;88.04;98262.59;5053553;28;20227;-70
2022/09/06 08:01:28;;;;;;;4.67;3.87;;;;;;;21.16;86.29;98260.56;5052422;28;20726;-70
2022/09/06 08:03:58;;;;;;;8.00;4.33;;;;;;;21.25;87.75;98250.75;5053095;28;20665;-70
2022/09/06 08:06:25;;;;;;;5.70;4.20;;;;;;;21.30;88.72;98250.72;5053647;28;20296;-71
2022/09/06 08:08:52;;;;;;;6.27;4.07;;;;;;;21.28;91.75;98240.19;5053333;28;20312;-71
2022/09/06 08:11:19;;;;;;;5.93;4.33;;;;;;;21.37;85.97;98240.38;5053370;28;20201;-70
2022/09/06 08:13:49;;;;;;;6.27;4.67;;;;;;;21.52;87.60;98243.75;5053331;28;20554;-70
2022/09/06 08:16:16;;;;;;;6.43;4.13;;;;;;;21.59;86.65;98246.13;5052968;28;20623;-70
2022/09/06 08:18:43;;;;;;;4.37;3.83;;;;;;;21.77;82.91;98248.16;5053144;28;20185;-71
2022/09/06 08:21:15;;;;;;;8.37;4.20;;;;;;;21.74;82.83;98243.31;5052685;28;20789;-71
2022/09/06 08:23:49;;;;;;;4.03;3.63;;;;;;;21.75;82.57;98250.34;5052641;28;20189;-71
2022/09/06 08:26:17;;;;;;;4.17;3.77;;;;;;;21.80;81.82;98253.00;5053396;28;20189;-70
2022/09/06 08:28:44;;;;;;;7.23;4.13;;;;;;;22.02;80.62;98251.41;5052848;28;20220;-71
2022/09/06 08:31:19;;;;;;;6.70;4.07;;;;;;;22.03;80.49;98246.81;5053055;28;20225;-71
2022/09/06 08:33:46;;;;;;;5.00;3.90;;;;;;;22.12;81.66;98255.91;5053197;28;20189;-71
2022/09/06 08:36:14;;;;;;;6.60;4.03;;;;;;;22.20;83.38;98239.81;5052912;28;20209;-71
2022/09/06 08:38:40;;;;;;;6.93;3.93;;;;;;;22.30;81.66;98247.03;5053030;28;20217;-70
2022/09/06 08:41:35;;;;;;;7.10;4.07;;;;;;;22.37;81.15;98252.91;5053201;28;20593;-70
2022/09/06 08:44:27;;;;;;;6.20;4.17;;;;;;;22.38;82.57;98251.81;5052714;28;20650;-70
2022/09/06 08:47:00;;;;;;;8.20;4.25;;;;;;;22.45;80.08;98242.28;5049992;28;20207;-71
2022/09/06 08:49:30;;;;;;;7.43;3.30;;;;;;;22.54;77.02;98240.53;5052607;28;20229;-70
2022/09/06 08:52:15;;;;;;;5.68;3.15;;;;;;;23.04;72.93;98242.53;5052756;28;20215;-70
2022/09/06 08:54:47;;;;;;;6.25;3.53;;;;;;;23.08;70.06;98234.59;5052793;28;20221;-70
2022/09/06 08:57:35;;;;;;;5.32;3.45;;;;;;;23.18;70.25;98242.56;5052935;28;20215;-71
2022/09/06 09:00:07;;;;;;;6.80;3.63;;;;;;;23.24;70.45;98234.09;5053001;28;20255;-70
2022/09/06 09:02:51;;;;;;;4.13;2.80;;;;;;;23.53;68.86;98223.84;5052790;28;20544;-71
2022/09/06 09:05:35;;;;;;;4.28;3.10;;;;;;;23.57;69.45;98235.69;5052764;28;20193;-71
2022/09/06 09:08:39;;;;;;;4.00;2.97;;;;;;;23.88;66.19;98228.63;5052908;28;20205;-70
2022/09/06 09:11:10;;;;;;;6.60;3.30;;;;;;;24.08;67.51;98230.19;5053381;28;20236;-70
2022/09/06 09:14:06;;;;;;;4.30;3.08;;;;;;;24.06;65.44;98230.47;5056394;28;20197;-71
2022/09/06 09:16:33;;;;;;;5.03;3.22;;;;;;;24.37;64.65;98226.06;5056323;28;20213;-71
2022/09/06 09:19:05;;;;;;;5.90;2.97;;;;;;;24.51;64.18;98220.63;5056239;28;20639;-70
2022/09/06 09:21:36;;;;;;;6.43;2.90;;;;;;;24.77;62.15;98217.06;5056134;28;20293;-70
2022/09/06 09:24:06;;;;;;;4.20;2.70;;;;;;;24.95;64.59;98218.00;5056554;28;20228;-70
2022/09/06 09:26:41;;;;;;;4.63;2.83;;;;;;;24.75;62.53;98213.03;5056004;28;20244;-70
2022/09/06 09:29:13;;;;;;;15.13;11.63;;;;;;;24.86;62.10;98217.13;5055732;28;20304;-71
2022/09/06 09:31:48;;;;;;;65.45;58.58;;;;;;;24.75;63.24;98213.84;5056043;28;20217;-71
2022/09/06 09:34:27;;;;;;;11.00;6.93;;;;;;;24.71;63.87;98207.41;5056071;28;20283;-71
2022/09/06 09:37:20;;;;;;;7.45;5.03;;;;;;;24.86;63.11;98217.13;5056079;28;20195;-71
2022/09/06 09:39:48;;;;;;;16.33;14.63;;;;;;;24.89;63.39;98214.63;5054955;28;20231;-71
2022/09/06 09:42:36;;;;;;;9.27;5.55;;;;;;;25.40;62.97;98219.66;5056153;28;20208;-70
2022/09/06 09:45:23;;;;;;;5.35;3.17;;;;;;;25.98;60.95;98215.72;5056024;28;20216;-71
2022/09/06 09:47:50;;;;;;;6.03;2.90;;;;;;;25.83;59.87;98213.34;5056379;28;20194;-71
2022/09/06 09:50:32;;;;;;;8.73;3.47;;;;;;;25.77;60.92;98211.88;5056011;28;20240;-71
2022/09/06 09:53:20;;;;;;;6.72;3.10;;;;;;;26.03;59.46;98206.56;5056034;28;20251;-70
2022/09/06 09:55:47;;;;;;;5.25;3.00;;;;;;;25.99;60.00;98208.31;5055591;28;20205;-71
2022/09/06 09:58:29;;;;;;;3.55;3.20;;;;;;;26.01;59.34;98208.81;5055943;28;20201;-70
2022/09/06 10:01:17;;;;;;;7.13;3.00;;;;;;;26.12;58.68;98204.69;5055781;28;20229;-71
2022/09/06 10:03:44;;;;;;;8.13;3.83;;;;;;;26.04;58.84;98214.44;5055936;28;20212;-71
2022/09/06 10:06:14;;;;;;;5.97;3.22;;;;;;;26.17;58.60;98208.09;5054531;28;20213;-70
2022/09/06 10:08:43;;;;;;;7.00;3.55;;;;;;;26.29;56.94;98207.47;5056871;28;20216;-71
2022/09/06 10:11:14;;;;;;;7.30;2.95;;;;;;;26.41;56.79;98205.75;5055165;28;20225;-70
2022/09/06 10:13:42;;;;;;;7.68;3.38;;;;;;;26.32;56.03;98204.13;5055000;28;20236;-71
2022/09/06 10:16:08;;;;;;;4.80;2.70;;;;;;;26.59;56.47;98201.19;5055522;28;20209;-70
2022/09/06 10:18:44;;;;;;;6.25;2.75;;;;;;;26.34;53.88;98196.44;5055582;28;20193;-71
2022/09/06 10:21:14;;;;;;;5.43;2.80;;;;;;;26.42;53.30;98198.38;5055422;28;20274;-72
2022/09/06 10:24:05;;;;;;;5.97;2.38;;;;;;;26.45;51.65;98197.72;5054595;28;20202;-71
2022/09/06 10:26:51;;;;;;;7.80;2.97;;;;;;;26.39;50.44;98199.81;5054322;28;20284;-70
2022/09/06 10:29:29;;;;;;;5.93;2.22;;;;;;;26.36;50.76;98194.16;5055055;28;20234;-71
2022/09/06 10:32:18;;;;;;;3.75;2.28;;;;;;;26.53;52.09;98186.84;5054074;28;20196;-71
2022/09/06 10:35:10;;;;;;;4.05;2.35;;;;;;;26.64;49.93;98177.25;5055226;28;20211;-70
2022/09/06 10:37:58;;;;;;;4.22;2.10;;;;;;;26.62;48.12;98173.25;5055238;28;20196;-70
2022/09/06 10:40:46;;;;;;;3.47;2.47;;;;;;;26.55;49.11;98170.97;5054632;28;20719;-71
2022/09/06 10:43:18;;;;;;;5.72;2.40;;;;;;;26.28;51.50;98173.16;5055070;28;20221;-71
2022/09/06 10:45:44;;;;;;;5.43;2.78;;;;;;;26.24;53.31;98181.16;5054673;28;20209;-71
2022/09/06 10:48:17;;;;;;;8.27;2.85;;;;;;;26.18;51.79;98170.72;5055739;28;20213;-71
2022/09/06 10:50:57;;;;;;;5.15;2.50;;;;;;;26.04;51.37;98170.84;5054911;28;20233;-71
2022/09/06 10:53:32;;;;;;;4.13;2.20;;;;;;;26.15;52.56;98171.38;5054890;28;20194;-71
2022/09/06 10:56:12;;;;;;;8.18;2.88;;;;;;;26.18;52.21;98165.25;5054832;28;20189;-70
2022/09/06 10:59:12;;;;;;;4.03;2.42;;;;;;;26.11;53.83;98165.75;5054271;28;20194;-71
2022/09/06 11:01:46;;;;;;;5.95;2.85;;;;;;;26.08;53.44;98160.13;5054398;28;20211;-71
2022/09/06 11:04:22;;;;;;;4.95;2.60;;;;;;;26.13;53.51;98160.78;5053520;28;20189;-71
2022/09/06 11:06:55;;;;;;;5.18;2.90;;;;;;;25.96;52.87;98157.22;5054765;28;20212;-71
2022/09/06 11:09:41;;;;;;;8.73;2.80;;;;;;;26.01;52.77;98154.34;5053236;28;20240;-70
2022/09/06 11:12:18;;;;;;;6.68;2.63;;;;;;;26.13;53.65;98151.78;5053218;28;20205;-72
2022/09/06 11:14:46;;;;;;;6.28;3.33;;;;;;;26.37;52.74;98144.78;5054350;28;20232;-71
2022/09/06 11:18:00;;;;;;;14.00;10.07;;;;;;;26.13;55.79;98147.16;5054009;28;20267;-72
2022/09/06 11:20:42;;;;;;;5.40;3.00;;;;;;;26.25;53.32;98154.72;5050465;28;20221;-71
2022/09/06 11:23:33;;;;;;;6.25;4.05;;;;;;;26.30;52.93;98149.94;5054099;28;20191;-71
2022/09/06 11:26:08;;;;;;;8.13;5.25;;;;;;;26.18;52.22;98157.09;5054074;28;20185;-71
2022/09/06 11:28:40;;;;;;;9.73;7.68;;;;;;;26.09;53.23;98159.81;5054332;28;20203;-71
2022/09/06 11:31:11;;;;;;;4.00;2.88;;;;;;;26.19;52.91;98156.00;5052905;28;20233;-71
2022/09/06 11:33:39;;;;;;;30.40;27.17;;;;;;;26.25;53.43;98152.00;5053896;28;20193;-71
2022/09/06 11:36:27;;;;;;;7.20;3.10;;;;;;;26.59;52.69;98160.28;5052752;28;20235;-72
2022/09/06 11:38:58;;;;;;;6.97;2.88;;;;;;;26.55;51.41;98153.81;5054043;28;20202;-71
2022/09/06 11:41:34;;;;;;;14.15;10.35;;;;;;;26.38;51.98;98161.97;5054020;28;20208;-71
2022/09/06 11:44:01;;;;;;;6.28;3.33;;;;;;;26.57;52.29;98159.78;5054041;28;20200;-71
2022/09/06 11:46:33;;;;;;;4.82;4.05;;;;;;;26.72;50.66;98148.38;5053640;28;20264;-71
2022/09/06 11:49:04;;;;;;;5.50;2.88;;;;;;;26.78;51.13;98158.03;5053803;28;20215;-71